sensor_id;sensor_type;location;lat;lon;timestamp;temperature;humidity
20690;DHT22;10504;48.762;8.996;2022-08-02T00:01:25;18.30;99.90
20690;DHT22;10504;48.762;8.996;2022-08-02T00:03:50;18.30;99.90
20690;DHT22;10504;48.762;8.996;2022-08-02T00:06:16;18.30;99.90
20690;DHT22;10504;48.762;8.996;2022-08-02T00:08:42;18.30;99.90
20690;DHT22;10504;48.762;8.996;2022-08-02T00:11:08;18.30;99.90
20690;DHT22;10504;48.762;8.996;2022-08-02T00:13:34;18.30;99.90
20690;DHT22;10504;48.762;8.996;2022-08-02T00:16:00;18.30;99.90
20690;DHT22;10504;48.762;8.996;2022-08-02T00:18:25;18.30;99.90
20690;DHT22;10504;48.762;8.996;2022-08-02T00:20:51;18.30;99.90
20690;DHT22;10504;48.762;8.996;2022-08-02T00:23:17;18.30;99.90
20690;DHT22;10504;48.762;8.996;2022-08-02T00:25:43;18.30;99.90
20690;DHT22;10504;48.762;8.996;2022-08-02T00:28:09;18.40;99.90
20690;DHT22;10504;48.762;8.996;2022-08-02T00:30:36;18.30;99.90
20690;DHT22;10504;48.762;8.996;2022-08-02T00:33:02;18.30;99.90
20690;DHT22;10504;48.762;8.996;2022-08-02T00:35:29;18.30;99.90
20690;DHT22;10504;48.762;8.996;2022-08-02T00:37:55;18.30;99.90
20690;DHT22;10504;48.762;8.996;2022-08-02T00:40:22;18.30;99.90
20690;DHT22;10504;48.762;8.996;2022-08-02T00:43:03;18.30;99.90
20690;DHT22;10504;48.762;8.996;2022-08-02T00:45:31;18.30;99.90
20690;DHT22;10504;48.762;8.996;2022-08-02T00:47:57;18.20;99.90
20690;DHT22;10504;48.762;8.996;2022-08-02T00:50:23;18.20;99.90
20690;DHT22;10504;48.762;8.996;2022-08-02T00:52:49;18.20;99.90
20690;DHT22;10504;48.762;8.996;2022-08-02T00:55:15;18.20;99.90
20690;DHT22;10504;48.762;8.996;2022-08-02T00:57:40;18.20;99.90
20690;DHT22;10504;48.762;8.996;2022-08-02T01:00:07;18.20;99.90
20690;DHT22;10504;48.762;8.996;2022-08-02T01:02:33;18.10;99.90
20690;DHT22;10504;48.762;8.996;2022-08-02T01:04:58;18.10;99.90
20690;DHT22;10504;48.762;8.996;2022-08-02T01:07:25;18.10;99.90
20690;DHT22;10504;48.762;8.996;2022-08-02T01:09:50;18.10;99.90
20690;DHT22;10504;48.762;8.996;2022-08-02T01:12:16;18.10;99.90
20690;DHT22;10504;48.762;8.996;2022-08-02T01:14:45;18.10;99.90
20690;DHT22;10504;48.762;8.996;2022-08-02T01:20:13;18.00;99.90
20690;DHT22;10504;48.762;8.996;2022-08-02T01:25:43;18.00;99.90
20690;DHT22;10504;48.762;8.996;2022-08-02T01:28:25;17.90;99.90
20690;DHT22;10504;48.762;8.996;2022-08-02T01:30:56;17.90;99.90
20690;DHT22;10504;48.762;8.996;2022-08-02T01:33:29;17.90;99.90
20690;DHT22;10504;48.762;8.996;2022-08-02T01:35:56;17.90;99.90
20690;DHT22;10504;48.762;8.996;2022-08-02T01:38:28;17.90;99.90
20690;DHT22;10504;48.762;8.996;2022-08-02T01:40:57;17.90;99.90
20690;DHT22;10504;48.762;8.996;2022-08-02T01:43:27;17.80;99.90
20690;DHT22;10504;48.762;8.996;2022-08-02T01:45:55;17.80;99.90
20690;DHT22;10504;48.762;8.996;2022-08-02T01:48:23;17.80;99.90
20690;DHT22;10504;48.762;8.996;2022-08-02T01:50:51;17.80;99.90
20690;DHT22;10504;48.762;8.996;2022-08-02T01:53:19;17.80;99.90
20690;DHT22;10504;48.762;8.996;2022-08-02T01:55:48;17.80;99.90
20690;DHT22;10504;48.762;8.996;2022-08-02T01:58:17;17.70;99.90
20690;DHT22;10504;48.762;8.996;2022-08-02T02:00:45;17.80;99.90
20690;DHT22;10504;48.762;8.996;2022-08-02T02:03:19;17.70;99.90
20690;DHT22;10504;48.762;8.996;2022-08-02T02:05:49;17.70;99.90
20690;DHT22;10504;48.762;8.996;2022-08-02T02:08:20;17.70;99.90
20690;DHT22;10504;48.762;8.996;2022-08-02T02:10:49;17.80;99.90
20690;DHT22;10504;48.762;8.996;2022-08-02T02:13:17;17.70;99.90
20690;DHT22;10504;48.762;8.996;2022-08-02T02:15:47;17.70;99.90
20690;DHT22;10504;48.762;8.996;2022-08-02T02:18:26;17.70;99.90
20690;DHT22;10504;48.762;8.996;2022-08-02T02:20:53;17.60;99.90
20690;DHT22;10504;48.762;8.996;2022-08-02T02:23:19;17.50;99.90
20690;DHT22;10504;48.762;8.996;2022-08-02T02:25:46;17.50;99.90
20690;DHT22;10504;48.762;8.996;2022-08-02T02:28:25;17.50;99.90
20690;DHT22;10504;48.762;8.996;2022-08-02T02:31:09;17.50;99.90
20690;DHT22;10504;48.762;8.996;2022-08-02T02:33:39;17.40;99.90
20690;DHT22;10504;48.762;8.996;2022-08-02T02:36:07;17.40;99.90
20690;DHT22;10504;48.762;8.996;2022-08-02T02:38:35;17.30;99.90
20690;DHT22;10504;48.762;8.996;2022-08-02T02:41:04;17.40;99.90
20690;DHT22;10504;48.762;8.996;2022-08-02T02:43:32;17.30;99.90
20690;DHT22;10504;48.762;8.996;2022-08-02T02:46:01;17.30;99.90
20690;DHT22;10504;48.762;8.996;2022-08-02T02:48:28;17.20;99.90
20690;DHT22;10504;48.762;8.996;2022-08-02T02:50:54;17.20;99.90
20690;DHT22;10504;48.762;8.996;2022-08-02T02:53:21;17.20;99.90
20690;DHT22;10504;48.762;8.996;2022-08-02T02:55:47;17.20;99.90
20690;DHT22;10504;48.762;8.996;2022-08-02T02:58:14;17.20;99.90
20690;DHT22;10504;48.762;8.996;2022-08-02T03:00:40;17.20;99.90
20690;DHT22;10504;48.762;8.996;2022-08-02T03:03:30;17.10;99.90
20690;DHT22;10504;48.762;8.996;2022-08-02T03:05:56;17.10;99.90
20690;DHT22;10504;48.762;8.996;2022-08-02T03:08:21;17.10;99.90
20690;DHT22;10504;48.762;8.996;2022-08-02T03:10:47;17.10;99.90
20690;DHT22;10504;48.762;8.996;2022-08-02T03:13:14;17.10;99.90
20690;DHT22;10504;48.762;8.996;2022-08-02T03:15:40;17.10;99.90
20690;DHT22;10504;48.762;8.996;2022-08-02T03:18:07;17.00;99.90
20690;DHT22;10504;48.762;8.996;2022-08-02T03:20:33;17.00;99.90
20690;DHT22;10504;48.762;8.996;2022-08-02T03:22:58;17.00;99.90
20690;DHT22;10504;48.762;8.996;2022-08-02T03:25:24;17.00;99.90
20690;DHT22;10504;48.762;8.996;2022-08-02T03:27:50;17.00;99.90
20690;DHT22;10504;48.762;8.996;2022-08-02T03:30:16;16.90;99.90
20690;DHT22;10504;48.762;8.996;2022-08-02T03:32:44;16.90;99.90
20690;DHT22;10504;48.762;8.996;2022-08-02T03:35:14;16.80;99.90
20690;DHT22;10504;48.762;8.996;2022-08-02T03:37:40;16.80;99.90
20690;DHT22;10504;48.762;8.996;2022-08-02T03:40:08;16.80;99.90
20690;DHT22;10504;48.762;8.996;2022-08-02T03:42:35;16.80;99.90
20690;DHT22;10504;48.762;8.996;2022-08-02T03:45:02;16.80;99.90
20690;DHT22;10504;48.762;8.996;2022-08-02T03:47:29;16.80;99.90
20690;DHT22;10504;48.762;8.996;2022-08-02T03:49:55;16.80;99.90
20690;DHT22;10504;48.762;8.996;2022-08-02T03:52:23;16.80;99.90
20690;DHT22;10504;48.762;8.996;2022-08-02T03:54:49;16.80;99.90
20690;DHT22;10504;48.762;8.996;2022-08-02T03:57:15;16.70;99.90
20690;DHT22;10504;48.762;8.996;2022-08-02T03:59:43;16.80;99.90
20690;DHT22;10504;48.762;8.996;2022-08-02T04:02:09;16.70;99.90
20690;DHT22;10504;48.762;8.996;2022-08-02T04:04:35;16.70;99.90
20690;DHT22;10504;48.762;8.996;2022-08-02T04:07:01;16.70;99.90
20690;DHT22;10504;48.762;8.996;2022-08-02T04:09:27;16.70;99.90
20690;DHT22;10504;48.762;8.996;2022-08-02T04:11:52;16.70;99.90
20690;DHT22;10504;48.762;8.996;2022-08-02T04:14:18;16.70;99.90
20690;DHT22;10504;48.762;8.996;2022-08-02T04:16:58;16.60;99.90
20690;DHT22;10504;48.762;8.996;2022-08-02T04:19:42;16.60;99.90
20690;DHT22;10504;48.762;8.996;2022-08-02T04:22:15;16.70;99.90
20690;DHT22;10504;48.762;8.996;2022-08-02T04:24:45;16.60;99.90
20690;DHT22;10504;48.762;8.996;2022-08-02T04:27:13;16.60;99.90
20690;DHT22;10504;48.762;8.996;2022-08-02T04:29:40;16.70;99.90
20690;DHT22;10504;48.762;8.996;2022-08-02T04:32:06;16.70;99.90
20690;DHT22;10504;48.762;8.996;2022-08-02T04:34:32;16.70;99.90
20690;DHT22;10504;48.762;8.996;2022-08-02T04:36:59;16.70;99.90
20690;DHT22;10504;48.762;8.996;2022-08-02T04:39:26;16.60;99.90
20690;DHT22;10504;48.762;8.996;2022-08-02T04:41:52;16.70;99.90
20690;DHT22;10504;48.762;8.996;2022-08-02T04:44:18;16.70;99.90
20690;DHT22;10504;48.762;8.996;2022-08-02T04:46:44;16.70;99.90
20690;DHT22;10504;48.762;8.996;2022-08-02T04:49:10;16.70;99.90
20690;DHT22;10504;48.762;8.996;2022-08-02T04:51:40;16.70;99.90
20690;DHT22;10504;48.762;8.996;2022-08-02T04:54:08;16.70;99.90
20690;DHT22;10504;48.762;8.996;2022-08-02T04:56:34;16.80;99.90
20690;DHT22;10504;48.762;8.996;2022-08-02T04:59:00;16.80;99.90
20690;DHT22;10504;48.762;8.996;2022-08-02T05:01:26;16.90;99.90
20690;DHT22;10504;48.762;8.996;2022-08-02T05:03:52;16.90;99.90
20690;DHT22;10504;48.762;8.996;2022-08-02T05:06:18;17.00;99.90
20690;DHT22;10504;48.762;8.996;2022-08-02T05:08:45;17.00;99.90
20690;DHT22;10504;48.762;8.996;2022-08-02T05:11:11;17.00;99.90
20690;DHT22;10504;48.762;8.996;2022-08-02T05:13:37;17.00;99.90
20690;DHT22;10504;48.762;8.996;2022-08-02T05:16:03;17.10;99.90
20690;DHT22;10504;48.762;8.996;2022-08-02T05:18:29;17.10;99.90
20690;DHT22;10504;48.762;8.996;2022-08-02T05:20:55;17.10;99.90
20690;DHT22;10504;48.762;8.996;2022-08-02T05:23:21;17.20;99.90
20690;DHT22;10504;48.762;8.996;2022-08-02T05:25:47;17.20;99.90
20690;DHT22;10504;48.762;8.996;2022-08-02T05:28:12;17.30;99.90
20690;DHT22;10504;48.762;8.996;2022-08-02T05:30:38;17.30;99.90
20690;DHT22;10504;48.762;8.996;2022-08-02T05:33:04;17.30;99.90
20690;DHT22;10504;48.762;8.996;2022-08-02T05:35:30;17.30;99.90
20690;DHT22;10504;48.762;8.996;2022-08-02T05:37:56;17.40;99.90
20690;DHT22;10504;48.762;8.996;2022-08-02T05:40:22;17.40;99.90
20690;DHT22;10504;48.762;8.996;2022-08-02T05:42:48;17.40;99.90
20690;DHT22;10504;48.762;8.996;2022-08-02T05:45:13;17.50;99.90
20690;DHT22;10504;48.762;8.996;2022-08-02T05:47:39;17.50;99.90
20690;DHT22;10504;48.762;8.996;2022-08-02T05:50:06;17.50;99.90
20690;DHT22;10504;48.762;8.996;2022-08-02T05:52:59;17.50;99.90
20690;DHT22;10504;48.762;8.996;2022-08-02T05:55:33;17.60;99.90
20690;DHT22;10504;48.762;8.996;2022-08-02T06:00:40;17.50;99.90
20690;DHT22;10504;48.762;8.996;2022-08-02T06:05:49;17.60;99.90
20690;DHT22;10504;48.762;8.996;2022-08-02T06:08:15;17.60;99.90
20690;DHT22;10504;48.762;8.996;2022-08-02T06:10:44;17.60;99.90
20690;DHT22;10504;48.762;8.996;2022-08-02T06:13:12;17.70;99.90
20690;DHT22;10504;48.762;8.996;2022-08-02T06:15:39;17.70;99.90
20690;DHT22;10504;48.762;8.996;2022-08-02T06:18:06;17.80;99.90
20690;DHT22;10504;48.762;8.996;2022-08-02T06:20:33;17.80;99.90
20690;DHT22;10504;48.762;8.996;2022-08-02T06:23:04;17.80;99.90
20690;DHT22;10504;48.762;8.996;2022-08-02T06:25:32;17.80;99.90
20690;DHT22;10504;48.762;8.996;2022-08-02T06:27:59;17.80;99.90
20690;DHT22;10504;48.762;8.996;2022-08-02T06:30:26;17.80;99.90
20690;DHT22;10504;48.762;8.996;2022-08-02T06:32:52;17.80;99.90
20690;DHT22;10504;48.762;8.996;2022-08-02T06:35:19;17.80;99.90
20690;DHT22;10504;48.762;8.996;2022-08-02T06:37:55;17.80;99.90
20690;DHT22;10504;48.762;8.996;2022-08-02T06:40:31;17.80;99.90
20690;DHT22;10504;48.762;8.996;2022-08-02T06:45:47;17.80;99.90
20690;DHT22;10504;48.762;8.996;2022-08-02T06:48:13;17.80;99.90
20690;DHT22;10504;48.762;8.996;2022-08-02T06:50:39;17.80;99.90
20690;DHT22;10504;48.762;8.996;2022-08-02T06:53:07;17.80;99.90
20690;DHT22;10504;48.762;8.996;2022-08-02T06:55:33;17.80;99.90
20690;DHT22;10504;48.762;8.996;2022-08-02T06:57:59;17.90;99.90
20690;DHT22;10504;48.762;8.996;2022-08-02T07:00:25;17.90;99.90
20690;DHT22;10504;48.762;8.996;2022-08-02T07:02:51;17.90;99.90
20690;DHT22;10504;48.762;8.996;2022-08-02T07:05:17;18.00;99.90
20690;DHT22;10504;48.762;8.996;2022-08-02T07:07:44;18.00;99.90
20690;DHT22;10504;48.762;8.996;2022-08-02T07:10:10;18.10;99.90
20690;DHT22;10504;48.762;8.996;2022-08-02T07:12:37;18.10;99.90
20690;DHT22;10504;48.762;8.996;2022-08-02T07:15:05;18.10;99.90
20690;DHT22;10504;48.762;8.996;2022-08-02T07:17:32;18.10;99.90
20690;DHT22;10504;48.762;8.996;2022-08-02T07:19:58;18.10;99.90
20690;DHT22;10504;48.762;8.996;2022-08-02T07:22:25;18.20;99.90
20690;DHT22;10504;48.762;8.996;2022-08-02T07:24:52;18.20;99.90
20690;DHT22;10504;48.762;8.996;2022-08-02T07:27:19;18.30;99.90
20690;DHT22;10504;48.762;8.996;2022-08-02T07:29:45;18.30;99.90
20690;DHT22;10504;48.762;8.996;2022-08-02T07:32:11;18.40;99.90
20690;DHT22;10504;48.762;8.996;2022-08-02T07:34:37;18.50;99.90
20690;DHT22;10504;48.762;8.996;2022-08-02T07:37:03;18.60;99.90
20690;DHT22;10504;48.762;8.996;2022-08-02T07:39:28;18.70;99.90
20690;DHT22;10504;48.762;8.996;2022-08-02T07:41:54;18.70;99.90
20690;DHT22;10504;48.762;8.996;2022-08-02T07:44:20;18.70;99.90
20690;DHT22;10504;48.762;8.996;2022-08-02T07:46:46;18.80;99.90
20690;DHT22;10504;48.762;8.996;2022-08-02T07:49:12;18.90;99.90
20690;DHT22;10504;48.762;8.996;2022-08-02T07:51:46;18.90;99.90
20690;DHT22;10504;48.762;8.996;2022-08-02T07:54:12;19.00;99.90
20690;DHT22;10504;48.762;8.996;2022-08-02T07:56:37;19.00;99.90
20690;DHT22;10504;48.762;8.996;2022-08-02T07:59:03;19.10;99.90
20690;DHT22;10504;48.762;8.996;2022-08-02T08:01:29;19.10;99.90
20690;DHT22;10504;48.762;8.996;2022-08-02T08:03:55;19.10;99.90
20690;DHT22;10504;48.762;8.996;2022-08-02T08:06:21;19.20;99.90
20690;DHT22;10504;48.762;8.996;2022-08-02T08:08:47;19.10;99.90
20690;DHT22;10504;48.762;8.996;2022-08-02T08:11:13;19.20;99.90
20690;DHT22;10504;48.762;8.996;2022-08-02T08:13:38;19.20;99.90
20690;DHT22;10504;48.762;8.996;2022-08-02T08:16:04;19.20;99.90
20690;DHT22;10504;48.762;8.996;2022-08-02T08:18:31;19.20;99.90
20690;DHT22;10504;48.762;8.996;2022-08-02T08:20:56;19.20;99.90
20690;DHT22;10504;48.762;8.996;2022-08-02T08:23:22;19.20;99.90
20690;DHT22;10504;48.762;8.996;2022-08-02T08:25:49;19.30;99.90
20690;DHT22;10504;48.762;8.996;2022-08-02T08:28:14;19.30;99.90
20690;DHT22;10504;48.762;8.996;2022-08-02T08:30:40;19.30;99.90
20690;DHT22;10504;48.762;8.996;2022-08-02T08:33:07;19.30;99.90
20690;DHT22;10504;48.762;8.996;2022-08-02T08:35:33;19.40;99.90
20690;DHT22;10504;48.762;8.996;2022-08-02T08:37:59;19.40;99.90
20690;DHT22;10504;48.762;8.996;2022-08-02T08:40:25;19.50;99.90
20690;DHT22;10504;48.762;8.996;2022-08-02T08:42:51;19.50;99.90
20690;DHT22;10504;48.762;8.996;2022-08-02T08:45:17;19.50;99.90
20690;DHT22;10504;48.762;8.996;2022-08-02T08:47:43;19.60;99.90
20690;DHT22;10504;48.762;8.996;2022-08-02T08:50:20;19.70;99.90
20690;DHT22;10504;48.762;8.996;2022-08-02T08:53:06;19.70;99.90
20690;DHT22;10504;48.762;8.996;2022-08-02T08:55:34;19.80;99.90
20690;DHT22;10504;48.762;8.996;2022-08-02T08:58:00;19.80;99.90
20690;DHT22;10504;48.762;8.996;2022-08-02T09:00:29;19.90;99.90
20690;DHT22;10504;48.762;8.996;2022-08-02T09:02:55;19.90;99.90
20690;DHT22;10504;48.762;8.996;2022-08-02T09:05:22;20.00;99.90
20690;DHT22;10504;48.762;8.996;2022-08-02T09:07:50;20.00;99.90
20690;DHT22;10504;48.762;8.996;2022-08-02T09:10:41;20.10;99.90
20690;DHT22;10504;48.762;8.996;2022-08-02T09:16:00;20.30;99.90
20690;DHT22;10504;48.762;8.996;2022-08-02T09:18:33;20.40;99.90
20690;DHT22;10504;48.762;8.996;2022-08-02T09:21:01;20.40;99.90
20690;DHT22;10504;48.762;8.996;2022-08-02T09:23:40;20.50;99.90
20690;DHT22;10504;48.762;8.996;2022-08-02T09:26:14;20.50;99.90
20690;DHT22;10504;48.762;8.996;2022-08-02T09:28:42;20.60;99.90
20690;DHT22;10504;48.762;8.996;2022-08-02T09:31:13;20.60;99.90
20690;DHT22;10504;48.762;8.996;2022-08-02T09:33:40;20.70;99.90
20690;DHT22;10504;48.762;8.996;2022-08-02T09:36:14;20.60;99.90
20690;DHT22;10504;48.762;8.996;2022-08-02T09:38:50;20.60;99.90
20690;DHT22;10504;48.762;8.996;2022-08-02T09:41:22;20.60;99.90
20690;DHT22;10504;48.762;8.996;2022-08-02T09:43:48;20.60;99.90
20690;DHT22;10504;48.762;8.996;2022-08-02T09:46:36;20.50;99.90
20690;DHT22;10504;48.762;8.996;2022-08-02T09:49:05;20.60;99.90
20690;DHT22;10504;48.762;8.996;2022-08-02T09:54:02;20.70;99.90
20690;DHT22;10504;48.762;8.996;2022-08-02T09:56:42;20.70;99.90
20690;DHT22;10504;48.762;8.996;2022-08-02T09:59:10;20.90;99.90
20690;DHT22;10504;48.762;8.996;2022-08-02T10:01:37;20.90;99.90
20690;DHT22;10504;48.762;8.996;2022-08-02T10:04:07;20.90;99.90
20690;DHT22;10504;48.762;8.996;2022-08-02T10:06:36;21.00;99.90
20690;DHT22;10504;48.762;8.996;2022-08-02T10:09:02;21.00;99.90
20690;DHT22;10504;48.762;8.996;2022-08-02T10:11:28;21.00;99.90
20690;DHT22;10504;48.762;8.996;2022-08-02T10:13:54;21.10;99.90
20690;DHT22;10504;48.762;8.996;2022-08-02T10:16:21;21.10;99.90
20690;DHT22;10504;48.762;8.996;2022-08-02T10:18:52;21.30;99.90
20690;DHT22;10504;48.762;8.996;2022-08-02T10:21:51;21.40;99.90
20690;DHT22;10504;48.762;8.996;2022-08-02T10:24:25;21.40;99.90
20690;DHT22;10504;48.762;8.996;2022-08-02T10:26:53;21.50;99.90
20690;DHT22;10504;48.762;8.996;2022-08-02T10:29:26;21.60;99.90
20690;DHT22;10504;48.762;8.996;2022-08-02T10:32:00;21.70;99.90
20690;DHT22;10504;48.762;8.996;2022-08-02T10:34:44;21.80;99.90
20690;DHT22;10504;48.762;8.996;2022-08-02T10:37:12;22.10;99.90
20690;DHT22;10504;48.762;8.996;2022-08-02T10:39:43;22.40;99.90
20690;DHT22;10504;48.762;8.996;2022-08-02T10:42:09;22.60;99.90
20690;DHT22;10504;48.762;8.996;2022-08-02T10:44:37;22.80;99.90
20690;DHT22;10504;48.762;8.996;2022-08-02T10:47:23;23.00;99.90
20690;DHT22;10504;48.762;8.996;2022-08-02T10:49:55;23.20;99.90
20690;DHT22;10504;48.762;8.996;2022-08-02T10:52:31;23.40;99.90
20690;DHT22;10504;48.762;8.996;2022-08-02T10:55:08;23.50;99.90
20690;DHT22;10504;48.762;8.996;2022-08-02T10:57:36;23.50;99.90
20690;DHT22;10504;48.762;8.996;2022-08-02T11:00:24;23.40;99.90
20690;DHT22;10504;48.762;8.996;2022-08-02T11:02:51;23.40;99.90
20690;DHT22;10504;48.762;8.996;2022-08-02T11:05:30;23.30;99.90
20690;DHT22;10504;48.762;8.996;2022-08-02T11:07:56;23.20;99.90
20690;DHT22;10504;48.762;8.996;2022-08-02T11:15:27;23.00;99.90
20690;DHT22;10504;48.762;8.996;2022-08-02T11:17:55;23.20;99.90
20690;DHT22;10504;48.762;8.996;2022-08-02T11:20:22;23.50;99.90
20690;DHT22;10504;48.762;8.996;2022-08-02T11:22:51;23.80;99.90
20690;DHT22;10504;48.762;8.996;2022-08-02T11:27:52;24.30;99.90
20690;DHT22;10504;48.762;8.996;2022-08-02T11:30:19;24.40;99.90
20690;DHT22;10504;48.762;8.996;2022-08-02T11:32:46;24.50;99.90
20690;DHT22;10504;48.762;8.996;2022-08-02T11:35:11;24.60;99.90
20690;DHT22;10504;48.762;8.996;2022-08-02T11:37:43;24.70;99.90
20690;DHT22;10504;48.762;8.996;2022-08-02T11:40:15;24.70;99.90
20690;DHT22;10504;48.762;8.996;2022-08-02T11:42:46;24.60;99.90
20690;DHT22;10504;48.762;8.996;2022-08-02T11:45:15;24.50;99.90
20690;DHT22;10504;48.762;8.996;2022-08-02T11:47:52;24.30;99.90
20690;DHT22;10504;48.762;8.996;2022-08-02T11:50:20;24.20;99.90
20690;DHT22;10504;48.762;8.996;2022-08-02T11:52:50;24.20;99.90
20690;DHT22;10504;48.762;8.996;2022-08-02T11:55:18;24.30;99.90
20690;DHT22;10504;48.762;8.996;2022-08-02T11:57:57;24.50;99.90
20690;DHT22;10504;48.762;8.996;2022-08-02T12:00:23;24.60;99.90
20690;DHT22;10504;48.762;8.996;2022-08-02T12:02:49;24.60;99.90
20690;DHT22;10504;48.762;8.996;2022-08-02T12:05:18;24.60;99.90
20690;DHT22;10504;48.762;8.996;2022-08-02T12:07:45;24.60;99.90
20690;DHT22;10504;48.762;8.996;2022-08-02T12:10:16;24.70;99.90
20690;DHT22;10504;48.762;8.996;2022-08-02T12:12:53;24.70;99.90
20690;DHT22;10504;48.762;8.996;2022-08-02T12:15:44;24.60;99.90
20690;DHT22;10504;48.762;8.996;2022-08-02T12:18:18;24.60;99.90
20690;DHT22;10504;48.762;8.996;2022-08-02T12:21:06;24.50;99.90
20690;DHT22;10504;48.762;8.996;2022-08-02T12:23:44;24.30;99.90
20690;DHT22;10504;48.762;8.996;2022-08-02T12:26:10;24.20;99.90
20690;DHT22;10504;48.762;8.996;2022-08-02T12:28:37;24.10;99.90
20690;DHT22;10504;48.762;8.996;2022-08-02T12:31:04;24.10;99.90
20690;DHT22;10504;48.762;8.996;2022-08-02T12:36:24;24.40;99.90
20690;DHT22;10504;48.762;8.996;2022-08-02T12:38:53;24.80;99.90
20690;DHT22;10504;48.762;8.996;2022-08-02T12:41:19;25.10;99.90
20690;DHT22;10504;48.762;8.996;2022-08-02T12:43:45;25.40;99.90
20690;DHT22;10504;48.762;8.996;2022-08-02T12:46:22;25.70;99.90
20690;DHT22;10504;48.762;8.996;2022-08-02T12:48:48;25.90;99.90
20690;DHT22;10504;48.762;8.996;2022-08-02T12:51:28;26.00;99.90
20690;DHT22;10504;48.762;8.996;2022-08-02T12:53:55;26.10;99.90
20690;DHT22;10504;48.762;8.996;2022-08-02T12:56:37;26.20;99.90
20690;DHT22;10504;48.762;8.996;2022-08-02T12:59:04;26.40;99.90
20690;DHT22;10504;48.762;8.996;2022-08-02T13:01:31;26.50;99.90
20690;DHT22;10504;48.762;8.996;2022-08-02T13:03:57;26.60;99.90
20690;DHT22;10504;48.762;8.996;2022-08-02T13:06:23;26.60;99.90
20690;DHT22;10504;48.762;8.996;2022-08-02T13:08:50;26.50;99.90
20690;DHT22;10504;48.762;8.996;2022-08-02T13:11:16;26.50;99.90
20690;DHT22;10504;48.762;8.996;2022-08-02T13:13:42;26.50;99.90
20690;DHT22;10504;48.762;8.996;2022-08-02T13:16:11;26.50;99.90
20690;DHT22;10504;48.762;8.996;2022-08-02T13:18:37;26.40;99.90
20690;DHT22;10504;48.762;8.996;2022-08-02T13:21:04;26.10;99.90
20690;DHT22;10504;48.762;8.996;2022-08-02T13:23:32;25.90;99.90
20690;DHT22;10504;48.762;8.996;2022-08-02T13:25:59;25.90;99.90
20690;DHT22;10504;48.762;8.996;2022-08-02T13:28:24;25.90;99.90
20690;DHT22;10504;48.762;8.996;2022-08-02T13:30:50;25.90;99.90
20690;DHT22;10504;48.762;8.996;2022-08-02T13:33:16;25.80;99.90
20690;DHT22;10504;48.762;8.996;2022-08-02T13:35:43;25.80;99.90
20690;DHT22;10504;48.762;8.996;2022-08-02T13:38:09;25.70;99.90
20690;DHT22;10504;48.762;8.996;2022-08-02T13:40:35;25.60;99.90
20690;DHT22;10504;48.762;8.996;2022-08-02T13:43:24;25.80;99.90
20690;DHT22;10504;48.762;8.996;2022-08-02T13:45:50;25.90;99.90
20690;DHT22;10504;48.762;8.996;2022-08-02T13:48:15;26.10;99.90
20690;DHT22;10504;48.762;8.996;2022-08-02T13:50:42;26.30;99.90
20690;DHT22;10504;48.762;8.996;2022-08-02T13:53:08;26.40;99.90
20690;DHT22;10504;48.762;8.996;2022-08-02T13:55:34;26.40;99.90
20690;DHT22;10504;48.762;8.996;2022-08-02T13:58:00;26.40;99.90
20690;DHT22;10504;48.762;8.996;2022-08-02T14:00:26;26.50;99.90
20690;DHT22;10504;48.762;8.996;2022-08-02T14:02:51;26.50;99.90
20690;DHT22;10504;48.762;8.996;2022-08-02T14:05:17;26.40;99.90
20690;DHT22;10504;48.762;8.996;2022-08-02T14:07:43;26.30;99.90
20690;DHT22;10504;48.762;8.996;2022-08-02T14:10:09;26.30;99.90
20690;DHT22;10504;48.762;8.996;2022-08-02T14:12:35;26.10;99.90
20690;DHT22;10504;48.762;8.996;2022-08-02T14:15:01;25.90;99.90
20690;DHT22;10504;48.762;8.996;2022-08-02T14:17:26;25.70;99.90
20690;DHT22;10504;48.762;8.996;2022-08-02T14:19:52;25.50;99.90
20690;DHT22;10504;48.762;8.996;2022-08-02T14:22:18;25.50;99.90
20690;DHT22;10504;48.762;8.996;2022-08-02T14:24:43;25.60;99.90
20690;DHT22;10504;48.762;8.996;2022-08-02T14:27:09;25.80;99.90
20690;DHT22;10504;48.762;8.996;2022-08-02T14:29:35;25.80;99.90
20690;DHT22;10504;48.762;8.996;2022-08-02T14:32:01;25.90;99.90
20690;DHT22;10504;48.762;8.996;2022-08-02T14:34:28;26.10;99.90
20690;DHT22;10504;48.762;8.996;2022-08-02T14:36:55;26.30;99.90
20690;DHT22;10504;48.762;8.996;2022-08-02T14:39:21;26.40;99.90
20690;DHT22;10504;48.762;8.996;2022-08-02T14:41:47;26.40;99.90
20690;DHT22;10504;48.762;8.996;2022-08-02T14:44:12;26.50;99.90
20690;DHT22;10504;48.762;8.996;2022-08-02T14:46:39;26.60;99.90
20690;DHT22;10504;48.762;8.996;2022-08-02T14:49:06;26.50;99.90
20690;DHT22;10504;48.762;8.996;2022-08-02T14:51:34;26.60;99.90
20690;DHT22;10504;48.762;8.996;2022-08-02T14:54:01;26.60;99.90
20690;DHT22;10504;48.762;8.996;2022-08-02T14:56:28;26.50;99.90
20690;DHT22;10504;48.762;8.996;2022-08-02T14:58:53;26.30;99.90
20690;DHT22;10504;48.762;8.996;2022-08-02T15:01:19;26.20;99.90
20690;DHT22;10504;48.762;8.996;2022-08-02T15:03:45;26.20;99.90
20690;DHT22;10504;48.762;8.996;2022-08-02T15:06:11;26.20;99.90
20690;DHT22;10504;48.762;8.996;2022-08-02T15:08:37;26.20;99.90
20690;DHT22;10504;48.762;8.996;2022-08-02T15:11:02;26.10;99.90
20690;DHT22;10504;48.762;8.996;2022-08-02T15:13:28;26.00;99.90
20690;DHT22;10504;48.762;8.996;2022-08-02T15:15:54;26.00;99.90
20690;DHT22;10504;48.762;8.996;2022-08-02T15:18:20;26.00;99.90
20690;DHT22;10504;48.762;8.996;2022-08-02T15:20:45;26.10;99.90
20690;DHT22;10504;48.762;8.996;2022-08-02T15:23:15;26.10;99.90
20690;DHT22;10504;48.762;8.996;2022-08-02T15:25:41;26.20;99.90
20690;DHT22;10504;48.762;8.996;2022-08-02T15:28:07;26.10;99.90
20690;DHT22;10504;48.762;8.996;2022-08-02T15:30:34;26.10;99.90
20690;DHT22;10504;48.762;8.996;2022-08-02T15:33:00;26.10;99.90
20690;DHT22;10504;48.762;8.996;2022-08-02T15:35:26;26.10;99.90
20690;DHT22;10504;48.762;8.996;2022-08-02T15:37:52;26.00;99.90
20690;DHT22;10504;48.762;8.996;2022-08-02T15:40:19;26.00;99.90
20690;DHT22;10504;48.762;8.996;2022-08-02T15:42:45;25.90;99.90
20690;DHT22;10504;48.762;8.996;2022-08-02T15:45:11;25.70;99.90
20690;DHT22;10504;48.762;8.996;2022-08-02T15:47:37;25.60;99.90
20690;DHT22;10504;48.762;8.996;2022-08-02T15:50:04;25.50;99.90
20690;DHT22;10504;48.762;8.996;2022-08-02T15:52:29;25.40;99.90
20690;DHT22;10504;48.762;8.996;2022-08-02T15:54:55;25.20;99.90
20690;DHT22;10504;48.762;8.996;2022-08-02T15:57:21;25.20;99.90
20690;DHT22;10504;48.762;8.996;2022-08-02T15:59:47;25.20;99.90
20690;DHT22;10504;48.762;8.996;2022-08-02T16:02:13;25.20;99.90
20690;DHT22;10504;48.762;8.996;2022-08-02T16:04:40;25.20;99.90
20690;DHT22;10504;48.762;8.996;2022-08-02T16:07:06;25.30;99.90